sensor_id;sensor_type;location;lat;lon;timestamp;P1;durP1;ratioP1;P2;durP2;ratioP2
21412;SDS011;10867;45.084;5.732;2022-12-18T00:00:57;48.90;;;34.47;;
21412;SDS011;10867;45.084;5.732;2022-12-18T00:03:33;40.10;;;31.85;;
21412;SDS011;10867;45.084;5.732;2022-12-18T00:06:07;38.30;;;30.83;;
21412;SDS011;10867;45.084;5.732;2022-12-18T00:08:39;42.90;;;34.17;;
21412;SDS011;10867;45.084;5.732;2022-12-18T00:11:23;55.13;;;37.85;;
21412;SDS011;10867;45.084;5.732;2022-12-18T00:17:07;37.95;;;30.95;;
21412;SDS011;10867;45.084;5.732;2022-12-18T00:20:03;35.03;;;29.73;;
21412;SDS011;10867;45.084;5.732;2022-12-18T00:26:06;48.20;;;35.88;;
21412;SDS011;10867;45.084;5.732;2022-12-18T00:28:53;89.97;;;46.92;;
21412;SDS011;10867;45.084;5.732;2022-12-18T00:31:38;73.68;;;42.45;;
21412;SDS011;10867;45.084;5.732;2022-12-18T00:34:08;46.27;;;32.97;;
21412;SDS011;10867;45.084;5.732;2022-12-18T00:36:42;33.10;;;28.50;;
21412;SDS011;10867;45.084;5.732;2022-12-18T00:39:18;33.20;;;27.67;;
21412;SDS011;10867;45.084;5.732;2022-12-18T00:41:49;33.33;;;28.02;;
21412;SDS011;10867;45.084;5.732;2022-12-18T00:44:34;36.20;;;30.15;;
21412;SDS011;10867;45.084;5.732;2022-12-18T00:47:00;40.47;;;31.90;;
21412;SDS011;10867;45.084;5.732;2022-12-18T00:49:28;38.08;;;31.40;;
21412;SDS011;10867;45.084;5.732;2022-12-18T00:51:54;33.65;;;28.83;;
21412;SDS011;10867;45.084;5.732;2022-12-18T00:54:22;35.45;;;30.42;;
21412;SDS011;10867;45.084;5.732;2022-12-18T00:56:58;42.08;;;33.50;;
21412;SDS011;10867;45.084;5.732;2022-12-18T00:59:26;39.80;;;31.05;;
21412;SDS011;10867;45.084;5.732;2022-12-18T01:01:53;35.25;;;29.48;;
21412;SDS011;10867;45.084;5.732;2022-12-18T01:04:19;36.00;;;30.33;;
21412;SDS011;10867;45.084;5.732;2022-12-18T01:06:48;36.20;;;30.02;;
21412;SDS011;10867;45.084;5.732;2022-12-18T01:09:14;35.13;;;28.55;;
21412;SDS011;10867;45.084;5.732;2022-12-18T01:11:41;36.25;;;28.48;;
21412;SDS011;10867;45.084;5.732;2022-12-18T01:14:07;34.53;;;28.60;;
21412;SDS011;10867;45.084;5.732;2022-12-18T01:16:36;36.35;;;29.27;;
21412;SDS011;10867;45.084;5.732;2022-12-18T01:19:02;34.40;;;28.25;;
21412;SDS011;10867;45.084;5.732;2022-12-18T01:21:29;34.30;;;28.10;;
21412;SDS011;10867;45.084;5.732;2022-12-18T01:23:55;33.88;;;28.80;;
21412;SDS011;10867;45.084;5.732;2022-12-18T01:26:22;34.25;;;28.70;;
21412;SDS011;10867;45.084;5.732;2022-12-18T01:28:49;34.80;;;29.53;;
21412;SDS011;10867;45.084;5.732;2022-12-18T01:31:16;32.92;;;27.92;;
21412;SDS011;10867;45.084;5.732;2022-12-18T01:33:43;32.83;;;28.35;;
21412;SDS011;10867;45.084;5.732;2022-12-18T01:36:17;30.23;;;26.15;;
21412;SDS011;10867;45.084;5.732;2022-12-18T01:38:45;29.42;;;25.27;;
21412;SDS011;10867;45.084;5.732;2022-12-18T01:41:12;32.72;;;27.08;;
21412;SDS011;10867;45.084;5.732;2022-12-18T01:43:53;26.33;;;23.50;;
21412;SDS011;10867;45.084;5.732;2022-12-18T01:46:21;28.75;;;24.30;;
21412;SDS011;10867;45.084;5.732;2022-12-18T01:48:51;29.35;;;24.73;;
21412;SDS011;10867;45.084;5.732;2022-12-18T01:51:18;27.30;;;23.70;;
21412;SDS011;10867;45.084;5.732;2022-12-18T01:53:45;27.48;;;23.42;;
21412;SDS011;10867;45.084;5.732;2022-12-18T01:56:12;25.27;;;22.02;;
21412;SDS011;10867;45.084;5.732;2022-12-18T02:01:10;23.42;;;20.90;;
21412;SDS011;10867;45.084;5.732;2022-12-18T02:03:41;25.38;;;22.02;;
21412;SDS011;10867;45.084;5.732;2022-12-18T02:08:46;22.17;;;19.08;;
21412;SDS011;10867;45.084;5.732;2022-12-18T02:11:30;21.50;;;18.17;;
21412;SDS011;10867;45.084;5.732;2022-12-18T02:16:38;22.93;;;19.57;;
21412;SDS011;10867;45.084;5.732;2022-12-18T02:19:18;28.73;;;21.40;;
21412;SDS011;10867;45.084;5.732;2022-12-18T02:24:18;24.08;;;19.52;;
21412;SDS011;10867;45.084;5.732;2022-12-18T02:26:48;22.80;;;18.75;;
21412;SDS011;10867;45.084;5.732;2022-12-18T02:32:04;24.58;;;19.52;;
21412;SDS011;10867;45.084;5.732;2022-12-18T02:34:35;26.77;;;20.45;;
21412;SDS011;10867;45.084;5.732;2022-12-18T02:37:06;27.33;;;21.83;;
21412;SDS011;10867;45.084;5.732;2022-12-18T02:39:34;29.27;;;21.95;;
21412;SDS011;10867;45.084;5.732;2022-12-18T02:42:01;26.60;;;21.15;;
21412;SDS011;10867;45.084;5.732;2022-12-18T02:44:33;24.58;;;20.52;;
21412;SDS011;10867;45.084;5.732;2022-12-18T02:46:59;26.27;;;20.87;;
21412;SDS011;10867;45.084;5.732;2022-12-18T02:52:31;27.52;;;22.08;;
21412;SDS011;10867;45.084;5.732;2022-12-18T02:57:33;28.83;;;23.00;;
21412;SDS011;10867;45.084;5.732;2022-12-18T03:00:05;27.43;;;21.87;;
21412;SDS011;10867;45.084;5.732;2022-12-18T03:05:13;29.98;;;23.98;;
21412;SDS011;10867;45.084;5.732;2022-12-18T03:07:46;32.72;;;24.38;;
21412;SDS011;10867;45.084;5.732;2022-12-18T03:10:14;28.95;;;23.35;;
21412;SDS011;10867;45.084;5.732;2022-12-18T03:12:44;28.35;;;22.33;;
21412;SDS011;10867;45.084;5.732;2022-12-18T03:17:44;28.50;;;22.75;;
21412;SDS011;10867;45.084;5.732;2022-12-18T03:20:12;28.75;;;22.45;;
21412;SDS011;10867;45.084;5.732;2022-12-18T03:22:39;26.10;;;21.45;;
21412;SDS011;10867;45.084;5.732;2022-12-18T03:25:11;28.02;;;21.90;;
21412;SDS011;10867;45.084;5.732;2022-12-18T03:27:39;26.98;;;21.50;;
21412;SDS011;10867;45.084;5.732;2022-12-18T03:30:09;26.75;;;22.55;;
21412;SDS011;10867;45.084;5.732;2022-12-18T03:32:44;28.33;;;21.88;;
21412;SDS011;10867;45.084;5.732;2022-12-18T03:35:19;25.17;;;20.40;;
21412;SDS011;10867;45.084;5.732;2022-12-18T03:37:50;23.83;;;20.90;;
21412;SDS011;10867;45.084;5.732;2022-12-18T03:40:20;27.83;;;21.60;;
21412;SDS011;10867;45.084;5.732;2022-12-18T03:42:56;24.63;;;20.00;;
21412;SDS011;10867;45.084;5.732;2022-12-18T03:45:32;25.27;;;20.35;;
21412;SDS011;10867;45.084;5.732;2022-12-18T03:50:46;25.33;;;20.60;;
21412;SDS011;10867;45.084;5.732;2022-12-18T03:53:27;24.92;;;20.08;;
21412;SDS011;10867;45.084;5.732;2022-12-18T03:55:54;25.27;;;20.77;;
21412;SDS011;10867;45.084;5.732;2022-12-18T03:58:24;26.03;;;20.90;;
21412;SDS011;10867;45.084;5.732;2022-12-18T04:00:52;26.77;;;21.20;;
21412;SDS011;10867;45.084;5.732;2022-12-18T04:03:19;24.27;;;20.48;;
21412;SDS011;10867;45.084;5.732;2022-12-18T04:05:46;24.50;;;20.25;;
21412;SDS011;10867;45.084;5.732;2022-12-18T04:08:14;24.63;;;20.55;;
21412;SDS011;10867;45.084;5.732;2022-12-18T04:10:43;23.25;;;19.77;;
21412;SDS011;10867;45.084;5.732;2022-12-18T04:13:09;24.35;;;20.33;;
21412;SDS011;10867;45.084;5.732;2022-12-18T04:15:35;23.60;;;19.38;;
21412;SDS011;10867;45.084;5.732;2022-12-18T04:18:02;24.23;;;19.58;;
21412;SDS011;10867;45.084;5.732;2022-12-18T04:20:29;23.73;;;19.30;;
21412;SDS011;10867;45.084;5.732;2022-12-18T04:22:55;24.33;;;19.85;;
21412;SDS011;10867;45.084;5.732;2022-12-18T04:25:21;25.75;;;20.15;;
21412;SDS011;10867;45.084;5.732;2022-12-18T04:27:50;25.67;;;20.50;;
21412;SDS011;10867;45.084;5.732;2022-12-18T04:30:16;24.30;;;19.30;;
21412;SDS011;10867;45.084;5.732;2022-12-18T04:32:42;23.67;;;19.50;;
21412;SDS011;10867;45.084;5.732;2022-12-18T04:35:08;21.70;;;18.65;;
21412;SDS011;10867;45.084;5.732;2022-12-18T04:37:37;24.33;;;19.77;;
21412;SDS011;10867;45.084;5.732;2022-12-18T04:40:03;23.40;;;19.58;;
21412;SDS011;10867;45.084;5.732;2022-12-18T04:42:29;25.15;;;19.45;;
21412;SDS011;10867;45.084;5.732;2022-12-18T04:44:55;23.95;;;19.73;;
21412;SDS011;10867;45.084;5.732;2022-12-18T04:47:22;24.52;;;19.67;;
21412;SDS011;10867;45.084;5.732;2022-12-18T04:49:49;25.08;;;20.30;;
21412;SDS011;10867;45.084;5.732;2022-12-18T04:52:15;24.35;;;19.67;;
21412;SDS011;10867;45.084;5.732;2022-12-18T04:54:42;23.10;;;19.13;;
21412;SDS011;10867;45.084;5.732;2022-12-18T04:57:09;22.13;;;19.08;;
21412;SDS011;10867;45.084;5.732;2022-12-18T04:59:35;23.37;;;19.53;;
21412;SDS011;10867;45.084;5.732;2022-12-18T05:02:01;22.08;;;18.85;;
21412;SDS011;10867;45.084;5.732;2022-12-18T05:04:27;21.45;;;18.10;;
21412;SDS011;10867;45.084;5.732;2022-12-18T05:06:53;19.48;;;17.13;;
21412;SDS011;10867;45.084;5.732;2022-12-18T05:09:20;19.67;;;16.67;;
21412;SDS011;10867;45.084;5.732;2022-12-18T05:11:46;19.60;;;17.08;;
21412;SDS011;10867;45.084;5.732;2022-12-18T05:14:12;21.33;;;17.67;;
21412;SDS011;10867;45.084;5.732;2022-12-18T05:16:38;19.07;;;16.93;;
21412;SDS011;10867;45.084;5.732;2022-12-18T05:19:04;21.80;;;17.88;;
21412;SDS011;10867;45.084;5.732;2022-12-18T05:21:31;24.10;;;19.67;;
21412;SDS011;10867;45.084;5.732;2022-12-18T05:23:57;21.33;;;17.85;;
21412;SDS011;10867;45.084;5.732;2022-12-18T05:26:24;24.08;;;19.42;;
21412;SDS011;10867;45.084;5.732;2022-12-18T05:28:50;30.10;;;24.75;;
21412;SDS011;10867;45.084;5.732;2022-12-18T05:31:18;23.85;;;20.65;;
21412;SDS011;10867;45.084;5.732;2022-12-18T05:33:44;23.58;;;19.92;;
21412;SDS011;10867;45.084;5.732;2022-12-18T05:36:10;34.17;;;29.38;;
21412;SDS011;10867;45.084;5.732;2022-12-18T05:38:37;28.67;;;24.90;;
21412;SDS011;10867;45.084;5.732;2022-12-18T05:41:04;27.38;;;24.40;;
21412;SDS011;10867;45.084;5.732;2022-12-18T05:43:30;23.88;;;21.20;;
21412;SDS011;10867;45.084;5.732;2022-12-18T05:45:57;21.02;;;18.35;;
21412;SDS011;10867;45.084;5.732;2022-12-18T05:48:23;23.05;;;19.60;;
21412;SDS011;10867;45.084;5.732;2022-12-18T05:50:50;20.63;;;18.23;;
21412;SDS011;10867;45.084;5.732;2022-12-18T05:53:18;19.75;;;17.48;;
21412;SDS011;10867;45.084;5.732;2022-12-18T05:55:45;19.60;;;17.48;;
21412;SDS011;10867;45.084;5.732;2022-12-18T05:58:12;20.20;;;18.05;;
21412;SDS011;10867;45.084;5.732;2022-12-18T06:00:39;21.25;;;18.25;;
21412;SDS011;10867;45.084;5.732;2022-12-18T06:03:09;20.52;;;18.17;;
21412;SDS011;10867;45.084;5.732;2022-12-18T06:05:36;18.87;;;16.53;;
21412;SDS011;10867;45.084;5.732;2022-12-18T06:08:03;19.35;;;16.80;;
21412;SDS011;10867;45.084;5.732;2022-12-18T06:10:29;19.30;;;16.05;;
21412;SDS011;10867;45.084;5.732;2022-12-18T06:12:55;20.90;;;16.52;;
21412;SDS011;10867;45.084;5.732;2022-12-18T06:15:21;18.48;;;15.98;;
21412;SDS011;10867;45.084;5.732;2022-12-18T06:17:48;19.73;;;16.30;;
21412;SDS011;10867;45.084;5.732;2022-12-18T06:20:14;18.55;;;16.25;;
21412;SDS011;10867;45.084;5.732;2022-12-18T06:22:40;19.00;;;16.37;;
21412;SDS011;10867;45.084;5.732;2022-12-18T06:25:06;17.60;;;15.70;;
21412;SDS011;10867;45.084;5.732;2022-12-18T06:27:32;18.80;;;15.82;;
21412;SDS011;10867;45.084;5.732;2022-12-18T06:29:59;18.98;;;16.23;;
21412;SDS011;10867;45.084;5.732;2022-12-18T06:32:25;19.13;;;16.23;;
21412;SDS011;10867;45.084;5.732;2022-12-18T06:34:52;17.20;;;15.25;;
21412;SDS011;10867;45.084;5.732;2022-12-18T06:37:19;18.38;;;15.80;;
21412;SDS011;10867;45.084;5.732;2022-12-18T06:39:47;20.05;;;16.45;;
21412;SDS011;10867;45.084;5.732;2022-12-18T06:42:13;18.95;;;15.68;;
21412;SDS011;10867;45.084;5.732;2022-12-18T06:44:40;19.83;;;16.73;;
21412;SDS011;10867;45.084;5.732;2022-12-18T06:47:06;20.52;;;17.10;;
21412;SDS011;10867;45.084;5.732;2022-12-18T06:49:32;19.00;;;16.20;;
21412;SDS011;10867;45.084;5.732;2022-12-18T06:51:58;19.65;;;16.33;;
21412;SDS011;10867;45.084;5.732;2022-12-18T06:54:25;45.92;;;16.75;;
21412;SDS011;10867;45.084;5.732;2022-12-18T06:56:51;56.25;;;17.55;;
21412;SDS011;10867;45.084;5.732;2022-12-18T06:59:17;17.35;;;14.95;;
21412;SDS011;10867;45.084;5.732;2022-12-18T07:01:43;17.20;;;14.63;;
21412;SDS011;10867;45.084;5.732;2022-12-18T07:04:12;18.33;;;15.93;;
21412;SDS011;10867;45.084;5.732;2022-12-18T07:06:38;19.75;;;17.08;;
21412;SDS011;10867;45.084;5.732;2022-12-18T07:09:04;20.27;;;17.17;;
21412;SDS011;10867;45.084;5.732;2022-12-18T07:11:32;18.55;;;16.13;;
21412;SDS011;10867;45.084;5.732;2022-12-18T07:13:58;18.67;;;16.08;;
21412;SDS011;10867;45.084;5.732;2022-12-18T07:16:24;17.83;;;15.30;;
21412;SDS011;10867;45.084;5.732;2022-12-18T07:22:24;18.75;;;15.77;;
21412;SDS011;10867;45.084;5.732;2022-12-18T07:25:31;18.52;;;15.38;;
21412;SDS011;10867;45.084;5.732;2022-12-18T07:28:30;18.20;;;15.60;;
21412;SDS011;10867;45.084;5.732;2022-12-18T07:30:56;18.33;;;15.37;;
21412;SDS011;10867;45.084;5.732;2022-12-18T07:33:24;18.80;;;15.65;;
21412;SDS011;10867;45.084;5.732;2022-12-18T07:43:18;20.65;;;16.15;;
21412;SDS011;10867;45.084;5.732;2022-12-18T07:46:02;21.35;;;16.45;;
21412;SDS011;10867;45.084;5.732;2022-12-18T07:52:03;19.92;;;16.15;;
21412;SDS011;10867;45.084;5.732;2022-12-18T07:54:40;41.53;;;18.67;;
21412;SDS011;10867;45.084;5.732;2022-12-18T07:57:17;23.13;;;18.92;;
21412;SDS011;10867;45.084;5.732;2022-12-18T07:59:46;21.35;;;17.40;;
21412;SDS011;10867;45.084;5.732;2022-12-18T08:02:26;22.60;;;18.58;;
21412;SDS011;10867;45.084;5.732;2022-12-18T08:04:55;23.80;;;19.65;;
21412;SDS011;10867;45.084;5.732;2022-12-18T08:07:21;21.48;;;17.73;;
21412;SDS011;10867;45.084;5.732;2022-12-18T08:09:48;24.27;;;18.40;;
21412;SDS011;10867;45.084;5.732;2022-12-18T08:12:37;23.73;;;17.70;;
21412;SDS011;10867;45.084;5.732;2022-12-18T08:15:06;22.83;;;18.38;;
21412;SDS011;10867;45.084;5.732;2022-12-18T08:20:27;20.90;;;17.88;;
21412;SDS011;10867;45.084;5.732;2022-12-18T08:22:54;23.10;;;19.77;;
21412;SDS011;10867;45.084;5.732;2022-12-18T08:37:39;27.85;;;23.25;;
21412;SDS011;10867;45.084;5.732;2022-12-18T08:40:20;27.93;;;24.00;;
21412;SDS011;10867;45.084;5.732;2022-12-18T08:42:46;28.08;;;22.95;;
21412;SDS011;10867;45.084;5.732;2022-12-18T08:45:31;22.77;;;20.00;;
21412;SDS011;10867;45.084;5.732;2022-12-18T08:47:58;22.92;;;19.65;;
21412;SDS011;10867;45.084;5.732;2022-12-18T08:50:25;22.00;;;18.60;;
21412;SDS011;10867;45.084;5.732;2022-12-18T08:52:51;20.97;;;18.73;;
21412;SDS011;10867;45.084;5.732;2022-12-18T08:55:17;22.58;;;19.38;;
21412;SDS011;10867;45.084;5.732;2022-12-18T08:57:47;23.83;;;19.88;;
21412;SDS011;10867;45.084;5.732;2022-12-18T09:00:14;22.42;;;19.73;;
21412;SDS011;10867;45.084;5.732;2022-12-18T09:02:40;20.98;;;18.58;;
21412;SDS011;10867;45.084;5.732;2022-12-18T09:05:07;23.93;;;18.83;;
21412;SDS011;10867;45.084;5.732;2022-12-18T09:07:33;19.25;;;16.15;;
21412;SDS011;10867;45.084;5.732;2022-12-18T09:10:00;18.13;;;15.85;;
21412;SDS011;10867;45.084;5.732;2022-12-18T09:12:26;17.10;;;15.15;;
21412;SDS011;10867;45.084;5.732;2022-12-18T09:14:52;16.52;;;14.25;;
21412;SDS011;10867;45.084;5.732;2022-12-18T09:17:18;15.43;;;13.70;;
21412;SDS011;10867;45.084;5.732;2022-12-18T09:19:44;15.33;;;13.73;;
21412;SDS011;10867;45.084;5.732;2022-12-18T09:22:11;16.02;;;14.15;;
21412;SDS011;10867;45.084;5.732;2022-12-18T09:24:37;17.85;;;15.20;;
21412;SDS011;10867;45.084;5.732;2022-12-18T09:27:03;18.13;;;15.65;;
21412;SDS011;10867;45.084;5.732;2022-12-18T09:29:29;16.55;;;14.75;;
21412;SDS011;10867;45.084;5.732;2022-12-18T09:31:56;17.35;;;15.23;;
21412;SDS011;10867;45.084;5.732;2022-12-18T09:34:22;16.07;;;14.37;;
21412;SDS011;10867;45.084;5.732;2022-12-18T09:36:48;17.25;;;15.02;;
21412;SDS011;10867;45.084;5.732;2022-12-18T09:39:14;15.98;;;14.27;;
21412;SDS011;10867;45.084;5.732;2022-12-18T09:41:42;15.55;;;13.85;;
21412;SDS011;10867;45.084;5.732;2022-12-18T09:46:43;18.05;;;16.00;;
21412;SDS011;10867;45.084;5.732;2022-12-18T09:49:12;20.02;;;15.68;;
21412;SDS011;10867;45.084;5.732;2022-12-18T09:51:41;19.23;;;17.23;;
21412;SDS011;10867;45.084;5.732;2022-12-18T09:54:12;18.38;;;16.38;;
21412;SDS011;10867;45.084;5.732;2022-12-18T09:56:40;19.27;;;17.00;;
21412;SDS011;10867;45.084;5.732;2022-12-18T09:59:08;18.00;;;15.85;;
21412;SDS011;10867;45.084;5.732;2022-12-18T10:01:40;19.40;;;16.85;;
21412;SDS011;10867;45.084;5.732;2022-12-18T10:04:07;18.60;;;16.60;;
21412;SDS011;10867;45.084;5.732;2022-12-18T10:20:05;18.70;;;15.48;;
21412;SDS011;10867;45.084;5.732;2022-12-18T10:27:30;17.08;;;15.38;;
21412;SDS011;10867;45.084;5.732;2022-12-18T10:29:56;17.65;;;15.70;;
21412;SDS011;10867;45.084;5.732;2022-12-18T10:32:24;16.83;;;14.85;;
21412;SDS011;10867;45.084;5.732;2022-12-18T10:34:51;15.63;;;14.02;;
21412;SDS011;10867;45.084;5.732;2022-12-18T10:37:19;15.77;;;14.05;;
21412;SDS011;10867;45.084;5.732;2022-12-18T10:39:46;15.93;;;13.82;;
21412;SDS011;10867;45.084;5.732;2022-12-18T10:42:19;15.55;;;12.93;;
21412;SDS011;10867;45.084;5.732;2022-12-18T10:44:45;15.07;;;13.48;;
21412;SDS011;10867;45.084;5.732;2022-12-18T10:47:12;15.77;;;13.95;;
21412;SDS011;10867;45.084;5.732;2022-12-18T10:49:42;17.10;;;15.27;;
21412;SDS011;10867;45.084;5.732;2022-12-18T10:54:46;16.88;;;14.48;;
21412;SDS011;10867;45.084;5.732;2022-12-18T10:57:14;13.70;;;12.27;;
21412;SDS011;10867;45.084;5.732;2022-12-18T10:59:51;15.93;;;13.40;;
21412;SDS011;10867;45.084;5.732;2022-12-18T11:02:26;15.07;;;12.98;;
21412;SDS011;10867;45.084;5.732;2022-12-18T11:04:52;14.70;;;13.10;;
21412;SDS011;10867;45.084;5.732;2022-12-18T11:07:18;14.73;;;13.07;;
21412;SDS011;10867;45.084;5.732;2022-12-18T11:09:45;14.60;;;13.07;;
21412;SDS011;10867;45.084;5.732;2022-12-18T11:12:25;13.57;;;12.18;;
21412;SDS011;10867;45.084;5.732;2022-12-18T11:14:53;18.02;;;14.07;;
21412;SDS011;10867;45.084;5.732;2022-12-18T11:17:34;15.73;;;14.05;;
21412;SDS011;10867;45.084;5.732;2022-12-18T11:20:02;16.05;;;14.23;;
21412;SDS011;10867;45.084;5.732;2022-12-18T11:22:39;13.27;;;11.88;;
21412;SDS011;10867;45.084;5.732;2022-12-18T11:25:06;11.73;;;10.53;;
21412;SDS011;10867;45.084;5.732;2022-12-18T11:27:32;12.00;;;10.68;;
21412;SDS011;10867;45.084;5.732;2022-12-18T11:30:08;12.32;;;11.02;;
21412;SDS011;10867;45.084;5.732;2022-12-18T11:32:43;11.60;;;10.40;;
21412;SDS011;10867;45.084;5.732;2022-12-18T11:35:12;12.05;;;10.77;;
21412;SDS011;10867;45.084;5.732;2022-12-18T11:37:41;11.43;;;10.23;;
21412;SDS011;10867;45.084;5.732;2022-12-18T11:40:11;13.80;;;11.82;;
21412;SDS011;10867;45.084;5.732;2022-12-18T11:42:41;15.10;;;11.88;;
21412;SDS011;10867;45.084;5.732;2022-12-18T11:47:43;13.60;;;11.38;;
21412;SDS011;10867;45.084;5.732;2022-12-18T11:50:13;10.77;;;9.53;;
21412;SDS011;10867;45.084;5.732;2022-12-18T11:52:40;10.35;;;9.35;;
21412;SDS011;10867;45.084;5.732;2022-12-18T11:55:11;11.10;;;10.00;;
21412;SDS011;10867;45.084;5.732;2022-12-18T12:00:16;10.73;;;9.63;;
21412;SDS011;10867;45.084;5.732;2022-12-18T12:03:00;12.32;;;11.02;;
21412;SDS011;10867;45.084;5.732;2022-12-18T12:07:59;13.13;;;11.70;;
21412;SDS011;10867;45.084;5.732;2022-12-18T12:13:04;12.77;;;11.05;;
21412;SDS011;10867;45.084;5.732;2022-12-18T12:18:28;11.98;;;10.70;;
21412;SDS011;10867;45.084;5.732;2022-12-18T12:23:32;12.27;;;11.02;;
21412;SDS011;10867;45.084;5.732;2022-12-18T12:26:02;11.48;;;10.02;;
21412;SDS011;10867;45.084;5.732;2022-12-18T12:31:08;12.48;;;11.02;;
21412;SDS011;10867;45.084;5.732;2022-12-18T12:33:50;11.45;;;10.23;;
21412;SDS011;10867;45.084;5.732;2022-12-18T12:36:22;12.65;;;11.38;;
21412;SDS011;10867;45.084;5.732;2022-12-18T12:38:53;11.88;;;10.57;;
21412;SDS011;10867;45.084;5.732;2022-12-18T12:41:22;17.52;;;14.70;;
21412;SDS011;10867;45.084;5.732;2022-12-18T12:44:08;13.33;;;11.97;;
21412;SDS011;10867;45.084;5.732;2022-12-18T12:46:39;12.50;;;11.30;;
21412;SDS011;10867;45.084;5.732;2022-12-18T12:49:20;12.10;;;10.90;;
21412;SDS011;10867;45.084;5.732;2022-12-18T12:51:47;12.60;;;11.35;;
21412;SDS011;10867;45.084;5.732;2022-12-18T12:54:21;12.18;;;10.98;;
21412;SDS011;10867;45.084;5.732;2022-12-18T12:56:54;12.85;;;11.50;;
21412;SDS011;10867;45.084;5.732;2022-12-18T13:07:35;13.02;;;11.65;;
21412;SDS011;10867;45.084;5.732;2022-12-18T13:13:01;11.18;;;9.98;;
21412;SDS011;10867;45.084;5.732;2022-12-18T13:20:41;11.90;;;9.88;;
21412;SDS011;10867;45.084;5.732;2022-12-18T13:28:16;9.07;;;8.18;;
21412;SDS011;10867;45.084;5.732;2022-12-18T13:30:56;9.23;;;8.32;;
21412;SDS011;10867;45.084;5.732;2022-12-18T13:36:00;9.10;;;8.20;;
21412;SDS011;10867;45.084;5.732;2022-12-18T13:38:33;8.43;;;7.63;;
21412;SDS011;10867;45.084;5.732;2022-12-18T13:43:51;8.75;;;7.95;;
21412;SDS011;10867;45.084;5.732;2022-12-18T13:51:39;8.68;;;7.25;;
21412;SDS011;10867;45.084;5.732;2022-12-18T13:56:46;8.03;;;7.33;;
21412;SDS011;10867;45.084;5.732;2022-12-18T13:59:20;8.00;;;7.20;;
21412;SDS011;10867;45.084;5.732;2022-12-18T14:02:00;7.60;;;6.90;;
21412;SDS011;10867;45.084;5.732;2022-12-18T14:04:27;7.38;;;6.68;;
21412;SDS011;10867;45.084;5.732;2022-12-18T14:06:58;7.38;;;6.70;;
21412;SDS011;10867;45.084;5.732;2022-12-18T14:09:28;7.38;;;6.72;;
21412;SDS011;10867;45.084;5.732;2022-12-18T14:11:55;8.13;;;7.32;;
21412;SDS011;10867;45.084;5.732;2022-12-18T14:14:46;7.30;;;6.60;;
21412;SDS011;10867;45.084;5.732;2022-12-18T14:17:15;8.70;;;7.80;;
21412;SDS011;10867;45.084;5.732;2022-12-18T14:19:45;7.97;;;7.18;;
21412;SDS011;10867;45.084;5.732;2022-12-18T14:22:16;8.45;;;7.65;;
21412;SDS011;10867;45.084;5.732;2022-12-18T14:24:43;7.87;;;7.17;;
21412;SDS011;10867;45.084;5.732;2022-12-18T14:27:23;8.13;;;7.40;;
21412;SDS011;10867;45.084;5.732;2022-12-18T14:29:49;7.75;;;7.05;;
21412;SDS011;10867;45.084;5.732;2022-12-18T14:32:16;8.95;;;7.25;;
21412;SDS011;10867;45.084;5.732;2022-12-18T14:34:50;7.82;;;7.10;;
21412;SDS011;10867;45.084;5.732;2022-12-18T14:37:20;8.32;;;7.45;;
21412;SDS011;10867;45.084;5.732;2022-12-18T14:39:56;8.18;;;7.22;;
21412;SDS011;10867;45.084;5.732;2022-12-18T14:42:23;8.45;;;7.65;;
21412;SDS011;10867;45.084;5.732;2022-12-18T14:45:31;7.90;;;7.10;;
21412;SDS011;10867;45.084;5.732;2022-12-18T14:47:38;9.57;;;8.40;;
21412;SDS011;10867;45.084;5.732;2022-12-18T14:50:12;8.32;;;7.53;;
21412;SDS011;10867;45.084;5.732;2022-12-18T14:52:39;7.85;;;7.07;;
21412;SDS011;10867;45.084;5.732;2022-12-18T14:55:13;8.00;;;7.20;;
21412;SDS011;10867;45.084;5.732;2022-12-18T14:57:40;8.43;;;7.57;;
21412;SDS011;10867;45.084;5.732;2022-12-18T15:00:15;9.52;;;8.55;;
21412;SDS011;10867;45.084;5.732;2022-12-18T15:02:44;10.00;;;9.00;;
21412;SDS011;10867;45.084;5.732;2022-12-18T15:05:24;10.07;;;9.13;;
21412;SDS011;10867;45.084;5.732;2022-12-18T15:08:00;9.53;;;8.60;;
21412;SDS011;10867;45.084;5.732;2022-12-18T15:20:32;15.23;;;12.88;;
21412;SDS011;10867;45.084;5.732;2022-12-18T15:22:59;12.85;;;11.27;;
21412;SDS011;10867;45.084;5.732;2022-12-18T15:25:27;12.20;;;10.90;;
21412;SDS011;10867;45.084;5.732;2022-12-18T15:27:56;11.18;;;9.98;;
21412;SDS011;10867;45.084;5.732;2022-12-18T15:30:22;11.50;;;10.13;;
21412;SDS011;10867;45.084;5.732;2022-12-18T15:32:49;13.88;;;12.00;;
21412;SDS011;10867;45.084;5.732;2022-12-18T15:35:22;14.40;;;11.88;;
21412;SDS011;10867;45.084;5.732;2022-12-18T15:37:49;12.00;;;10.70;;
21412;SDS011;10867;45.084;5.732;2022-12-18T15:40:20;23.23;;;18.45;;
21412;SDS011;10867;45.084;5.732;2022-12-18T15:42:47;26.80;;;20.73;;
21412;SDS011;10867;45.084;5.732;2022-12-18T15:45:33;18.33;;;15.73;;
21412;SDS011;10867;45.084;5.732;2022-12-18T15:47:59;16.38;;;14.00;;
21412;SDS011;10867;45.084;5.732;2022-12-18T15:50:25;17.63;;;15.20;;
21412;SDS011;10867;45.084;5.732;2022-12-18T15:52:52;15.48;;;13.10;;
21412;SDS011;10867;45.084;5.732;2022-12-18T15:55:21;15.17;;;13.00;;
21412;SDS011;10867;45.084;5.732;2022-12-18T15:58:06;19.55;;;16.10;;
21412;SDS011;10867;45.084;5.732;2022-12-18T16:00:34;17.47;;;14.83;;
21412;SDS011;10867;45.084;5.732;2022-12-18T16:03:01;17.35;;;14.60;;
21412;SDS011;10867;45.084;5.732;2022-12-18T16:05:27;16.35;;;14.07;;
21412;SDS011;10867;45.084;5.732;2022-12-18T16:07:53;13.75;;;12.35;;
21412;SDS011;10867;45.084;5.732;2022-12-18T16:10:19;14.88;;;12.93;;
21412;SDS011;10867;45.084;5.732;2022-12-18T16:12:46;14.38;;;12.63;;
21412;SDS011;10867;45.084;5.732;2022-12-18T16:15:13;16.83;;;15.07;;
21412;SDS011;10867;45.084;5.732;2022-12-18T16:17:41;17.38;;;15.57;;
21412;SDS011;10867;45.084;5.732;2022-12-18T16:20:18;20.40;;;17.48;;
21412;SDS011;10867;45.084;5.732;2022-12-18T16:22:44;28.02;;;25.13;;
21412;SDS011;10867;45.084;5.732;2022-12-18T16:25:21;24.13;;;21.60;;
21412;SDS011;10867;45.084;5.732;2022-12-18T16:27:47;25.30;;;21.37;;
21412;SDS011;10867;45.084;5.732;2022-12-18T16:30:14;22.70;;;20.20;;
21412;SDS011;10867;45.084;5.732;2022-12-18T16:32:40;31.23;;;26.93;;
21412;SDS011;10867;45.084;5.732;2022-12-18T16:35:09;27.35;;;23.83;;
21412;SDS011;10867;45.084;5.732;2022-12-18T16:37:35;21.75;;;19.45;;
21412;SDS011;10867;45.084;5.732;2022-12-18T16:40:01;26.95;;;21.45;;
21412;SDS011;10867;45.084;5.732;2022-12-18T16:42:27;27.40;;;22.17;;
21412;SDS011;10867;45.084;5.732;2022-12-18T16:44:53;29.33;;;22.80;;
21412;SDS011;10867;45.084;5.732;2022-12-18T16:47:19;32.00;;;23.45;;
21412;SDS011;10867;45.084;5.732;2022-12-18T16:49:45;26.35;;;21.50;;
21412;SDS011;10867;45.084;5.732;2022-12-18T16:52:15;30.70;;;24.13;;
21412;SDS011;10867;45.084;5.732;2022-12-18T16:54:42;25.63;;;21.38;;
21412;SDS011;10867;45.084;5.732;2022-12-18T16:57:10;25.55;;;20.65;;
21412;SDS011;10867;45.084;5.732;2022-12-18T16:59:37;27.50;;;22.20;;
21412;SDS011;10867;45.084;5.732;2022-12-18T17:02:03;24.40;;;20.85;;
21412;SDS011;10867;45.084;5.732;2022-12-18T17:04:31;27.25;;;21.27;;
21412;SDS011;10867;45.084;5.732;2022-12-18T17:06:58;23.17;;;19.10;;